Tannersville, Virginia
Current Conditions -  °F | °C
As of 6:55 AM on Saturday 22 Nov 2014 (Local Time) from KJFZ Reporting Station
Clear Clear  
Wind Chill: 37°   Ceiling: Unl
Heat Index: 37°   Visibility: 10mi
Dew Point:   Wind: 0mph
Humidity: 24%   Direction: NA
Pressure: 30.38"   Gusts: NA
Location:  36.98°N, 81.63°W
Report Text: KJFZ 221155Z AUTO 00000KT 10SM CLR 03/M16 A3038 RMK AO2 T00261161 10051 20006
Loading
Personal Weather Stations






























Interactive Weather Map New forecast layout! Learn more

10-Day Weather Forecast

Advertisements
Track Severe Weather on mobile